Terminal Aerodrome Forecast
Issued by NWS Mt. Holly, NJ

Home | Current Version | Previous Version | Text Only | Print | Product List | Glossary On
Versions: 1 2 3 4 5 6 7 8 9 10 11 12 13 14 15 16 17
000
FTUS41 KPHI 211700
TAFILG
TAF
KILG 211738Z 2118/2218 17007KT P6SM BKN040
      TEMPO 2123/2202 5SM SHRA BR BKN025
     FM220200 15005KT P6SM BKN060
     FM221000 08003KT 5SM BR BKN004
     FM221300 03005KT P6SM SCT015
     FM221500 05005KT P6SM BKN040=

USA.gov is the U.S. government's official web portal to all federal, state and local government web resources and services.